sensor_id;sensor_type;location;lat;lon;timestamp;temperature;humidity
16116;DHT22;8162;47.104;15.432;2023-01-13T12:18:15;9.00;58.60
16116;DHT22;8162;47.104;15.432;2023-01-13T12:23:49;9.00;59.30
16116;DHT22;8162;47.104;15.432;2023-01-13T12:26:16;9.00;59.00
16116;DHT22;8162;47.104;15.432;2023-01-13T12:29:09;9.00;57.00
16116;DHT22;8162;47.104;15.432;2023-01-13T12:31:38;9.00;58.00
16116;DHT22;8162;47.104;15.432;2023-01-13T12:34:35;9.20;58.20
16116;DHT22;8162;47.104;15.432;2023-01-13T12:39:48;9.20;56.60
16116;DHT22;8162;47.104;15.432;2023-01-13T12:45:28;9.40;57.10
16116;DHT22;8162;47.104;15.432;2023-01-13T12:47:55;9.40;57.00
16116;DHT22;8162;47.104;15.432;2023-01-13T12:52:53;9.50;59.50
16116;DHT22;8162;47.104;15.432;2023-01-13T12:55:31;9.50;59.10
16116;DHT22;8162;47.104;15.432;2023-01-13T13:11:02;9.50;58.00
16116;DHT22;8162;47.104;15.432;2023-01-13T13:13:46;9.40;57.10
16116;DHT22;8162;47.104;15.432;2023-01-13T13:24:35;9.40;57.00
16116;DHT22;8162;47.104;15.432;2023-01-13T13:27:17;9.40;56.10
16116;DHT22;8162;47.104;15.432;2023-01-13T13:29:59;9.40;56.90
16116;DHT22;8162;47.104;15.432;2023-01-13T13:40:49;9.30;56.70
16116;DHT22;8162;47.104;15.432;2023-01-13T13:43:51;9.30;56.50
16116;DHT22;8162;47.104;15.432;2023-01-13T13:46:44;9.20;56.10
16116;DHT22;8162;47.104;15.432;2023-01-13T13:49:18;9.20;57.50
16116;DHT22;8162;47.104;15.432;2023-01-13T13:52:03;9.20;57.60
16116;DHT22;8162;47.104;15.432;2023-01-13T13:54:31;9.20;57.90
16116;DHT22;8162;47.104;15.432;2023-01-13T13:56:57;9.20;57.10
16116;DHT22;8162;47.104;15.432;2023-01-13T13:59:25;9.20;57.70
16116;DHT22;8162;47.104;15.432;2023-01-13T14:01:54;9.10;58.70
16116;DHT22;8162;47.104;15.432;2023-01-13T14:04:30;9.00;59.00
16116;DHT22;8162;47.104;15.432;2023-01-13T14:06:59;9.00;58.90
16116;DHT22;8162;47.104;15.432;2023-01-13T14:09:27;9.00;59.20
16116;DHT22;8162;47.104;15.432;2023-01-13T14:12:01;9.00;59.80
16116;DHT22;8162;47.104;15.432;2023-01-13T14:14:27;9.00;60.80
16116;DHT22;8162;47.104;15.432;2023-01-13T14:16:53;9.00;60.60
16116;DHT22;8162;47.104;15.432;2023-01-13T14:19:32;8.90;60.70
16116;DHT22;8162;47.104;15.432;2023-01-13T14:21:59;8.90;61.50
16116;DHT22;8162;47.104;15.432;2023-01-13T14:24:26;8.80;61.90
16116;DHT22;8162;47.104;15.432;2023-01-13T14:26:52;8.80;61.80
16116;DHT22;8162;47.104;15.432;2023-01-13T14:29:32;8.70;62.30
16116;DHT22;8162;47.104;15.432;2023-01-13T14:31:58;8.60;63.50
16116;DHT22;8162;47.104;15.432;2023-01-13T14:34:26;8.60;63.80
16116;DHT22;8162;47.104;15.432;2023-01-13T14:36:53;8.60;64.40
16116;DHT22;8162;47.104;15.432;2023-01-13T14:39:23;8.50;65.00
16116;DHT22;8162;47.104;15.432;2023-01-13T14:41:49;8.40;65.30
16116;DHT22;8162;47.104;15.432;2023-01-13T14:46:51;8.30;65.30
16116;DHT22;8162;47.104;15.432;2023-01-13T14:49:38;8.30;65.80
16116;DHT22;8162;47.104;15.432;2023-01-13T15:00:23;8.10;65.90
16116;DHT22;8162;47.104;15.432;2023-01-13T15:03:03;8.00;66.10
16116;DHT22;8162;47.104;15.432;2023-01-13T15:05:34;8.00;65.80
16116;DHT22;8162;47.104;15.432;2023-01-13T15:08:26;7.90;65.90
16116;DHT22;8162;47.104;15.432;2023-01-13T15:11:05;7.80;66.00
16116;DHT22;8162;47.104;15.432;2023-01-13T15:13:39;7.80;65.80
16116;DHT22;8162;47.104;15.432;2023-01-13T15:16:20;7.80;66.00
16116;DHT22;8162;47.104;15.432;2023-01-13T15:18:47;7.70;67.20
16116;DHT22;8162;47.104;15.432;2023-01-13T15:21:13;7.60;67.50
16116;DHT22;8162;47.104;15.432;2023-01-13T15:23:40;7.60;67.10
16116;DHT22;8162;47.104;15.432;2023-01-13T15:26:27;7.60;66.60
16116;DHT22;8162;47.104;15.432;2023-01-13T15:28:55;7.60;66.80
16116;DHT22;8162;47.104;15.432;2023-01-13T15:31:22;7.60;67.40
16116;DHT22;8162;47.104;15.432;2023-01-13T15:33:48;7.50;67.20
16116;DHT22;8162;47.104;15.432;2023-01-13T15:36:26;7.50;67.90
16116;DHT22;8162;47.104;15.432;2023-01-13T15:38:53;7.50;67.50
16116;DHT22;8162;47.104;15.432;2023-01-13T15:41:19;7.40;67.80
16116;DHT22;8162;47.104;15.432;2023-01-13T15:44:04;7.30;68.80
16116;DHT22;8162;47.104;15.432;2023-01-13T15:46:49;7.20;68.90
16116;DHT22;8162;47.104;15.432;2023-01-13T15:49:28;7.20;69.80
16116;DHT22;8162;47.104;15.432;2023-01-13T15:52:23;7.20;69.20
16116;DHT22;8162;47.104;15.432;2023-01-13T15:54:50;7.10;70.10
16116;DHT22;8162;47.104;15.432;2023-01-13T15:59:51;7.00;70.10
16116;DHT22;8162;47.104;15.432;2023-01-13T16:02:18;7.00;69.90
16116;DHT22;8162;47.104;15.432;2023-01-13T16:04:44;7.00;69.90
16116;DHT22;8162;47.104;15.432;2023-01-13T16:07:16;7.00;70.10
16116;DHT22;8162;47.104;15.432;2023-01-13T16:09:42;6.90;71.20
16116;DHT22;8162;47.104;15.432;2023-01-13T16:12:08;6.80;71.00
16116;DHT22;8162;47.104;15.432;2023-01-13T16:14:34;6.80;70.80
16116;DHT22;8162;47.104;15.432;2023-01-13T16:17:00;6.80;70.70
16116;DHT22;8162;47.104;15.432;2023-01-13T16:19:26;6.80;71.50
16116;DHT22;8162;47.104;15.432;2023-01-13T16:21:52;6.70;71.50
16116;DHT22;8162;47.104;15.432;2023-01-13T16:24:18;6.70;71.10
16116;DHT22;8162;47.104;15.432;2023-01-13T16:26:43;6.70;70.90
16116;DHT22;8162;47.104;15.432;2023-01-13T16:29:10;6.60;71.10
16116;DHT22;8162;47.104;15.432;2023-01-13T16:31:37;6.60;71.00
16116;DHT22;8162;47.104;15.432;2023-01-13T16:34:04;6.60;71.10
16116;DHT22;8162;47.104;15.432;2023-01-13T16:36:33;6.50;71.60
16116;DHT22;8162;47.104;15.432;2023-01-13T16:38:59;6.50;71.60
16116;DHT22;8162;47.104;15.432;2023-01-13T16:41:25;6.40;71.80
16116;DHT22;8162;47.104;15.432;2023-01-13T16:43:52;6.40;72.30
16116;DHT22;8162;47.104;15.432;2023-01-13T16:46:28;6.30;72.50
16116;DHT22;8162;47.104;15.432;2023-01-13T16:48:56;6.20;72.50
16116;DHT22;8162;47.104;15.432;2023-01-13T16:51:26;6.30;72.60
16116;DHT22;8162;47.104;15.432;2023-01-13T16:53:52;6.20;72.70
16116;DHT22;8162;47.104;15.432;2023-01-13T16:58:50;6.20;73.10
16116;DHT22;8162;47.104;15.432;2023-01-13T17:01:24;6.20;73.00
16116;DHT22;8162;47.104;15.432;2023-01-13T17:03:51;6.20;73.00
16116;DHT22;8162;47.104;15.432;2023-01-13T17:06:20;6.10;72.90
16116;DHT22;8162;47.104;15.432;2023-01-13T17:08:47;6.10;73.10
16116;DHT22;8162;47.104;15.432;2023-01-13T17:11:12;6.10;73.00
16116;DHT22;8162;47.104;15.432;2023-01-13T17:13:39;6.00;73.50
16116;DHT22;8162;47.104;15.432;2023-01-13T17:16:05;6.00;73.40
16116;DHT22;8162;47.104;15.432;2023-01-13T17:18:31;6.00;73.30
16116;DHT22;8162;47.104;15.432;2023-01-13T17:20:56;6.00;73.80
16116;DHT22;8162;47.104;15.432;2023-01-13T17:23:23;6.00;73.90
16116;DHT22;8162;47.104;15.432;2023-01-13T17:25:49;5.90;73.80
16116;DHT22;8162;47.104;15.432;2023-01-13T17:28:15;5.90;73.90
16116;DHT22;8162;47.104;15.432;2023-01-13T17:30:42;5.90;74.20
16116;DHT22;8162;47.104;15.432;2023-01-13T17:33:08;5.90;74.20
16116;DHT22;8162;47.104;15.432;2023-01-13T17:35:35;5.80;74.50
16116;DHT22;8162;47.104;15.432;2023-01-13T17:38:02;5.70;74.60
16116;DHT22;8162;47.104;15.432;2023-01-13T17:40:28;5.80;74.60
16116;DHT22;8162;47.104;15.432;2023-01-13T17:42:54;5.80;74.70
16116;DHT22;8162;47.104;15.432;2023-01-13T17:45:21;5.70;74.70
16116;DHT22;8162;47.104;15.432;2023-01-13T17:47:47;5.70;74.70
16116;DHT22;8162;47.104;15.432;2023-01-13T17:50:12;5.70;75.00
16116;DHT22;8162;47.104;15.432;2023-01-13T17:52:38;5.60;74.80
16116;DHT22;8162;47.104;15.432;2023-01-13T17:55:04;5.60;75.00
16116;DHT22;8162;47.104;15.432;2023-01-13T17:57:30;5.60;75.10
16116;DHT22;8162;47.104;15.432;2023-01-13T17:59:56;5.60;75.10
16116;DHT22;8162;47.104;15.432;2023-01-13T18:02:23;5.60;75.00
16116;DHT22;8162;47.104;15.432;2023-01-13T18:04:50;5.60;75.00
16116;DHT22;8162;47.104;15.432;2023-01-13T18:07:16;5.50;75.30
16116;DHT22;8162;47.104;15.432;2023-01-13T18:09:42;5.50;75.40
16116;DHT22;8162;47.104;15.432;2023-01-13T18:12:08;5.50;75.50
16116;DHT22;8162;47.104;15.432;2023-01-13T18:14:34;5.50;75.70
16116;DHT22;8162;47.104;15.432;2023-01-13T18:17:00;5.50;75.70
16116;DHT22;8162;47.104;15.432;2023-01-13T18:19:25;5.50;75.90
16116;DHT22;8162;47.104;15.432;2023-01-13T18:22:13;5.50;75.70
16116;DHT22;8162;47.104;15.432;2023-01-13T18:24:58;5.50;75.80
16116;DHT22;8162;47.104;15.432;2023-01-13T18:27:42;5.40;75.90
16116;DHT22;8162;47.104;15.432;2023-01-13T18:30:08;5.30;75.70
16116;DHT22;8162;47.104;15.432;2023-01-13T18:32:34;5.30;75.70
16116;DHT22;8162;47.104;15.432;2023-01-13T18:35:03;5.30;76.00
16116;DHT22;8162;47.104;15.432;2023-01-13T18:37:29;5.30;76.10
16116;DHT22;8162;47.104;15.432;2023-01-13T18:39:56;5.30;76.00
16116;DHT22;8162;47.104;15.432;2023-01-13T18:42:21;5.30;75.80
16116;DHT22;8162;47.104;15.432;2023-01-13T18:45:05;5.30;76.00
16116;DHT22;8162;47.104;15.432;2023-01-13T18:47:31;5.20;76.20
16116;DHT22;8162;47.104;15.432;2023-01-13T18:49:58;5.10;76.70
16116;DHT22;8162;47.104;15.432;2023-01-13T18:52:25;5.10;76.50
16116;DHT22;8162;47.104;15.432;2023-01-13T18:54:51;5.10;76.50
16116;DHT22;8162;47.104;15.432;2023-01-13T18:57:17;5.10;76.50
16116;DHT22;8162;47.104;15.432;2023-01-13T18:59:43;5.10;76.50
16116;DHT22;8162;47.104;15.432;2023-01-13T19:02:14;5.00;76.60
16116;DHT22;8162;47.104;15.432;2023-01-13T19:04:41;5.00;76.50
16116;DHT22;8162;47.104;15.432;2023-01-13T19:07:06;5.00;76.50
16116;DHT22;8162;47.104;15.432;2023-01-13T19:09:36;5.00;76.80
16116;DHT22;8162;47.104;15.432;2023-01-13T19:12:02;5.00;76.80
16116;DHT22;8162;47.104;15.432;2023-01-13T19:14:30;5.00;76.90
16116;DHT22;8162;47.104;15.432;2023-01-13T19:17:07;4.90;77.10
16116;DHT22;8162;47.104;15.432;2023-01-13T19:19:42;4.90;77.30
16116;DHT22;8162;47.104;15.432;2023-01-13T19:22:10;4.80;77.00
16116;DHT22;8162;47.104;15.432;2023-01-13T19:24:36;4.80;77.30
16116;DHT22;8162;47.104;15.432;2023-01-13T19:27:06;4.80;77.60
16116;DHT22;8162;47.104;15.432;2023-01-13T19:29:33;4.80;77.60
16116;DHT22;8162;47.104;15.432;2023-01-13T19:31:59;4.80;77.90
16116;DHT22;8162;47.104;15.432;2023-01-13T19:34:25;4.70;78.10
16116;DHT22;8162;47.104;15.432;2023-01-13T19:36:52;4.70;77.90
16116;DHT22;8162;47.104;15.432;2023-01-13T19:39:21;4.80;77.80
16116;DHT22;8162;47.104;15.432;2023-01-13T19:41:47;4.80;77.70
16116;DHT22;8162;47.104;15.432;2023-01-13T19:44:32;4.80;77.80
16116;DHT22;8162;47.104;15.432;2023-01-13T19:47:17;4.80;78.10
16116;DHT22;8162;47.104;15.432;2023-01-13T19:49:43;4.70;77.80
16116;DHT22;8162;47.104;15.432;2023-01-13T19:52:10;4.80;78.00
16116;DHT22;8162;47.104;15.432;2023-01-13T19:54:36;4.80;78.30
16116;DHT22;8162;47.104;15.432;2023-01-13T19:57:03;4.90;78.00
16116;DHT22;8162;47.104;15.432;2023-01-13T19:59:29;4.90;77.90
16116;DHT22;8162;47.104;15.432;2023-01-13T20:01:58;4.90;77.60
16116;DHT22;8162;47.104;15.432;2023-01-13T20:04:26;5.00;77.70
16116;DHT22;8162;47.104;15.432;2023-01-13T20:07:02;5.00;77.40
16116;DHT22;8162;47.104;15.432;2023-01-13T20:09:33;5.00;77.40
16116;DHT22;8162;47.104;15.432;2023-01-13T20:11:59;5.00;77.20
16116;DHT22;8162;47.104;15.432;2023-01-13T20:14:33;5.00;77.10
16116;DHT22;8162;47.104;15.432;2023-01-13T20:16:59;5.00;76.00
16116;DHT22;8162;47.104;15.432;2023-01-13T20:19:25;5.00;76.20
16116;DHT22;8162;47.104;15.432;2023-01-13T20:21:51;5.00;75.90
16116;DHT22;8162;47.104;15.432;2023-01-13T20:24:17;5.00;76.20
16116;DHT22;8162;47.104;15.432;2023-01-13T20:26:44;5.00;75.60
16116;DHT22;8162;47.104;15.432;2023-01-13T20:29:10;5.00;75.50
16116;DHT22;8162;47.104;15.432;2023-01-13T20:31:36;5.00;75.90
16116;DHT22;8162;47.104;15.432;2023-01-13T20:34:04;5.00;74.20
16116;DHT22;8162;47.104;15.432;2023-01-13T20:36:34;5.00;74.50
16116;DHT22;8162;47.104;15.432;2023-01-13T20:39:04;5.00;74.80
16116;DHT22;8162;47.104;15.432;2023-01-13T20:41:30;5.00;75.20
16116;DHT22;8162;47.104;15.432;2023-01-13T20:44:15;5.00;74.90
16116;DHT22;8162;47.104;15.432;2023-01-13T20:46:44;5.10;75.00
16116;DHT22;8162;47.104;15.432;2023-01-13T20:49:11;5.10;74.50
16116;DHT22;8162;47.104;15.432;2023-01-13T20:51:37;5.10;74.60
16116;DHT22;8162;47.104;15.432;2023-01-13T20:54:04;5.10;74.70
16116;DHT22;8162;47.104;15.432;2023-01-13T20:56:31;5.10;74.60
16116;DHT22;8162;47.104;15.432;2023-01-13T20:58:57;5.10;74.30
16116;DHT22;8162;47.104;15.432;2023-01-13T21:01:23;5.20;74.10
16116;DHT22;8162;47.104;15.432;2023-01-13T21:03:48;5.20;74.30
16116;DHT22;8162;47.104;15.432;2023-01-13T21:06:14;5.20;74.30
16116;DHT22;8162;47.104;15.432;2023-01-13T21:08:46;5.30;73.90
16116;DHT22;8162;47.104;15.432;2023-01-13T21:11:12;5.30;73.40
16116;DHT22;8162;47.104;15.432;2023-01-13T21:13:40;5.30;73.30
16116;DHT22;8162;47.104;15.432;2023-01-13T21:16:25;5.30;73.40
16116;DHT22;8162;47.104;15.432;2023-01-13T21:18:50;5.30;73.40
16116;DHT22;8162;47.104;15.432;2023-01-13T21:21:31;5.30;73.60
16116;DHT22;8162;47.104;15.432;2023-01-13T21:23:57;5.30;73.80
16116;DHT22;8162;47.104;15.432;2023-01-13T21:26:23;5.30;73.60
16116;DHT22;8162;47.104;15.432;2023-01-13T21:28:49;5.20;73.60
16116;DHT22;8162;47.104;15.432;2023-01-13T21:31:15;5.10;74.10
16116;DHT22;8162;47.104;15.432;2023-01-13T21:33:41;5.00;74.00
16116;DHT22;8162;47.104;15.432;2023-01-13T21:36:12;5.10;74.30
16116;DHT22;8162;47.104;15.432;2023-01-13T21:38:38;5.00;74.20
16116;DHT22;8162;47.104;15.432;2023-01-13T21:41:05;5.00;74.40
16116;DHT22;8162;47.104;15.432;2023-01-13T21:43:33;4.90;74.80
16116;DHT22;8162;47.104;15.432;2023-01-13T21:46:19;4.90;75.20
16116;DHT22;8162;47.104;15.432;2023-01-13T21:49:04;4.80;75.10
16116;DHT22;8162;47.104;15.432;2023-01-13T21:51:30;4.80;75.30
16116;DHT22;8162;47.104;15.432;2023-01-13T21:53:56;4.80;75.50
16116;DHT22;8162;47.104;15.432;2023-01-13T21:56:22;4.90;75.80
16116;DHT22;8162;47.104;15.432;2023-01-13T21:58:48;4.80;76.00
16116;DHT22;8162;47.104;15.432;2023-01-13T22:01:16;4.80;76.30
16116;DHT22;8162;47.104;15.432;2023-01-13T22:03:42;4.80;76.60
16116;DHT22;8162;47.104;15.432;2023-01-13T22:06:26;4.80;76.90
16116;DHT22;8162;47.104;15.432;2023-01-13T22:08:55;4.80;76.50
16116;DHT22;8162;47.104;15.432;2023-01-13T22:11:24;4.80;76.50
16116;DHT22;8162;47.104;15.432;2023-01-13T22:13:50;4.80;76.50
16116;DHT22;8162;47.104;15.432;2023-01-13T22:16:39;4.70;76.70
16116;DHT22;8162;47.104;15.432;2023-01-13T22:19:08;4.70;76.90
16116;DHT22;8162;47.104;15.432;2023-01-13T22:21:34;4.70;76.80
16116;DHT22;8162;47.104;15.432;2023-01-13T22:24:00;4.70;76.90
16116;DHT22;8162;47.104;15.432;2023-01-13T22:26:26;4.70;77.30
16116;DHT22;8162;47.104;15.432;2023-01-13T22:28:53;4.60;77.60
16116;DHT22;8162;47.104;15.432;2023-01-13T22:31:21;4.50;77.80
16116;DHT22;8162;47.104;15.432;2023-01-13T22:33:51;4.50;78.00
16116;DHT22;8162;47.104;15.432;2023-01-13T22:36:17;4.50;78.00
16116;DHT22;8162;47.104;15.432;2023-01-13T22:38:43;4.50;78.00
16116;DHT22;8162;47.104;15.432;2023-01-13T22:41:09;4.50;77.90
16116;DHT22;8162;47.104;15.432;2023-01-13T22:43:36;4.50;77.90
16116;DHT22;8162;47.104;15.432;2023-01-13T22:46:10;4.40;77.70
16116;DHT22;8162;47.104;15.432;2023-01-13T22:48:37;4.30;78.40
16116;DHT22;8162;47.104;15.432;2023-01-13T22:51:11;4.30;78.40
16116;DHT22;8162;47.104;15.432;2023-01-13T22:53:37;4.40;78.50
16116;DHT22;8162;47.104;15.432;2023-01-13T22:56:04;4.30;78.60
16116;DHT22;8162;47.104;15.432;2023-01-13T22:58:30;4.30;78.90
16116;DHT22;8162;47.104;15.432;2023-01-13T23:01:08;4.30;78.80
16116;DHT22;8162;47.104;15.432;2023-01-13T23:03:34;4.40;79.00
16116;DHT22;8162;47.104;15.432;2023-01-13T23:06:00;4.40;79.30
16116;DHT22;8162;47.104;15.432;2023-01-13T23:08:26;4.40;79.50
16116;DHT22;8162;47.104;15.432;2023-01-13T23:11:09;4.40;79.70
16116;DHT22;8162;47.104;15.432;2023-01-13T23:13:37;4.40;79.90
16116;DHT22;8162;47.104;15.432;2023-01-13T23:16:10;4.40;79.90
16116;DHT22;8162;47.104;15.432;2023-01-13T23:18:36;4.40;79.80
16116;DHT22;8162;47.104;15.432;2023-01-13T23:21:12;4.40;80.20
16116;DHT22;8162;47.104;15.432;2023-01-13T23:23:39;4.30;80.20
16116;DHT22;8162;47.104;15.432;2023-01-13T23:26:05;4.30;80.70
16116;DHT22;8162;47.104;15.432;2023-01-13T23:28:32;4.30;80.60
16116;DHT22;8162;47.104;15.432;2023-01-13T23:30:58;4.30;80.70
16116;DHT22;8162;47.104;15.432;2023-01-13T23:33:24;4.30;80.80
16116;DHT22;8162;47.104;15.432;2023-01-13T23:35:58;4.20;80.20
16116;DHT22;8162;47.104;15.432;2023-01-13T23:38:24;4.10;80.20
16116;DHT22;8162;47.104;15.432;2023-01-13T23:40:50;4.00;80.50
16116;DHT22;8162;47.104;15.432;2023-01-13T23:43:16;4.00;80.20
16116;DHT22;8162;47.104;15.432;2023-01-13T23:45:42;3.90;80.50
16116;DHT22;8162;47.104;15.432;2023-01-13T23:48:08;3.90;80.50
16116;DHT22;8162;47.104;15.432;2023-01-13T23:50:33;3.90;80.30
16116;DHT22;8162;47.104;15.432;2023-01-13T23:52:59;3.70;80.50
16116;DHT22;8162;47.104;15.432;2023-01-13T23:55:25;3.70;80.50
16116;DHT22;8162;47.104;15.432;2023-01-13T23:57:51;3.60;80.70
